sensor_id;sensor_type;location;lat;lon;timestamp;pressure;altitude;pressure_sealevel;temperature;humidity
70815;BME280;58428;49.478;10.986;2023-01-01T00:00:50;98682.22;;;12.16;100.00
70815;BME280;58428;49.478;10.986;2023-01-01T00:03:17;98678.06;;;12.19;100.00
70815;BME280;58428;49.478;10.986;2023-01-01T00:05:42;98683.94;;;12.21;100.00
70815;BME280;58428;49.478;10.986;2023-01-01T00:08:10;98683.63;;;12.22;100.00
70815;BME280;58428;49.478;10.986;2023-01-01T00:10:36;98686.66;;;12.21;100.00
70815;BME280;58428;49.478;10.986;2023-01-01T00:13:04;98683.63;;;12.22;100.00
70815;BME280;58428;49.478;10.986;2023-01-01T00:15:29;98687.47;;;12.21;100.00
70815;BME280;58428;49.478;10.986;2023-01-01T00:17:55;98690.19;;;12.21;100.00
70815;BME280;58428;49.478;10.986;2023-01-01T00:20:22;98694.78;;;12.21;100.00
70815;BME280;58428;49.478;10.986;2023-01-01T00:22:48;98696.72;;;12.20;100.00
70815;BME280;58428;49.478;10.986;2023-01-01T00:25:14;98693.53;;;12.18;100.00
70815;BME280;58428;49.478;10.986;2023-01-01T00:27:42;98689.56;;;12.16;100.00
70815;BME280;58428;49.478;10.986;2023-01-01T00:30:09;98690.69;;;12.15;100.00
70815;BME280;58428;49.478;10.986;2023-01-01T00:32:34;98696.47;;;12.13;100.00
70815;BME280;58428;49.478;10.986;2023-01-01T00:35:00;98692.16;;;12.13;100.00
70815;BME280;58428;49.478;10.986;2023-01-01T00:37:27;98701.38;;;12.12;100.00
70815;BME280;58428;49.478;10.986;2023-01-01T00:39:58;98692.47;;;12.11;100.00
70815;BME280;58428;49.478;10.986;2023-01-01T00:42:25;98694.38;;;12.11;100.00
70815;BME280;58428;49.478;10.986;2023-01-01T00:44:50;98686.56;;;12.09;100.00
70815;BME280;58428;49.478;10.986;2023-01-01T00:47:16;98688.81;;;12.07;100.00
70815;BME280;58428;49.478;10.986;2023-01-01T00:49:41;98690.44;;;12.08;100.00
70815;BME280;58428;49.478;10.986;2023-01-01T00:52:07;98690.75;;;12.07;100.00
70815;BME280;58428;49.478;10.986;2023-01-01T00:54:33;98684.84;;;12.05;100.00
70815;BME280;58428;49.478;10.986;2023-01-01T00:57:00;98687.44;;;12.01;100.00
70815;BME280;58428;49.478;10.986;2023-01-01T00:59:28;98695.41;;;11.98;100.00
70815;BME280;58428;49.478;10.986;2023-01-01T01:01:54;98696.09;;;11.95;100.00
70815;BME280;58428;49.478;10.986;2023-01-01T01:04:19;98690.97;;;11.93;100.00
70815;BME280;58428;49.478;10.986;2023-01-01T01:06:46;98687.00;;;11.91;100.00
70815;BME280;58428;49.478;10.986;2023-01-01T01:09:11;98688.13;;;11.90;100.00
70815;BME280;58428;49.478;10.986;2023-01-01T01:11:37;98684.94;;;11.88;100.00
70815;BME280;58428;49.478;10.986;2023-01-01T01:14:02;98687.97;;;11.86;100.00
70815;BME280;58428;49.478;10.986;2023-01-01T01:16:30;98684.16;;;11.87;100.00
70815;BME280;58428;49.478;10.986;2023-01-01T01:18:58;98677.63;;;11.88;100.00
70815;BME280;58428;49.478;10.986;2023-01-01T01:21:25;98682.69;;;11.90;100.00
70815;BME280;58428;49.478;10.986;2023-01-01T01:23:52;98678.09;;;11.90;100.00
70815;BME280;58428;49.478;10.986;2023-01-01T01:26:24;98675.84;;;11.92;100.00
70815;BME280;58428;49.478;10.986;2023-01-01T01:28:51;98676.97;;;11.91;100.00
70815;BME280;58428;49.478;10.986;2023-01-01T01:31:19;98684.31;;;11.91;100.00
70815;BME280;58428;49.478;10.986;2023-01-01T01:33:45;98675.03;;;11.92;100.00
70815;BME280;58428;49.478;10.986;2023-01-01T01:36:11;98681.84;;;11.98;100.00
70815;BME280;58428;49.478;10.986;2023-01-01T01:38:37;98685.97;;;12.04;100.00
70815;BME280;58428;49.478;10.986;2023-01-01T01:41:04;98686.44;;;12.06;100.00
70815;BME280;58428;49.478;10.986;2023-01-01T01:46:25;98693.47;;;12.07;100.00
70815;BME280;58428;49.478;10.986;2023-01-01T01:48:52;98690.75;;;12.07;100.00
70815;BME280;58428;49.478;10.986;2023-01-01T01:51:23;98686.91;;;12.08;100.00
70815;BME280;58428;49.478;10.986;2023-01-01T01:53:55;98688.50;;;12.09;100.00
70815;BME280;58428;49.478;10.986;2023-01-01T01:56:35;98690.06;;;12.10;100.00
70815;BME280;58428;49.478;10.986;2023-01-01T01:59:04;98686.25;;;12.11;100.00
70815;BME280;58428;49.478;10.986;2023-01-01T02:01:30;98680.03;;;12.10;100.00
70815;BME280;58428;49.478;10.986;2023-01-01T02:04:00;98676.81;;;12.16;100.00
70815;BME280;58428;49.478;10.986;2023-01-01T02:06:29;98678.25;;;12.14;100.00
70815;BME280;58428;49.478;10.986;2023-01-01T02:08:56;98682.91;;;12.13;100.00
70815;BME280;58428;49.478;10.986;2023-01-01T02:11:24;98671.56;;;12.12;100.00
70815;BME280;58428;49.478;10.986;2023-01-01T02:13:51;98671.44;;;12.08;100.00
70815;BME280;58428;49.478;10.986;2023-01-01T02:16:45;98671.75;;;12.07;100.00
70815;BME280;58428;49.478;10.986;2023-01-01T02:30:07;98670.97;;;12.06;100.00
70815;BME280;58428;49.478;10.986;2023-01-01T02:32:45;98666.66;;;12.05;100.00
70815;BME280;58428;49.478;10.986;2023-01-01T02:35:22;98671.63;;;12.03;100.00
70815;BME280;58428;49.478;10.986;2023-01-01T02:38:21;98668.44;;;12.01;100.00
70815;BME280;58428;49.478;10.986;2023-01-01T02:40:50;98675.78;;;12.01;100.00
70815;BME280;58428;49.478;10.986;2023-01-01T02:43:17;98676.09;;;11.99;100.00
70815;BME280;58428;49.478;10.986;2023-01-01T02:45:44;98670.38;;;12.01;100.00
70815;BME280;58428;49.478;10.986;2023-01-01T02:48:45;98673.25;;;11.96;100.00
70815;BME280;58428;49.478;10.986;2023-01-01T02:54:26;98673.94;;;11.93;100.00
70815;BME280;58428;49.478;10.986;2023-01-01T02:57:23;98677.75;;;11.92;100.00
70815;BME280;58428;49.478;10.986;2023-01-01T03:08:32;98669.63;;;11.92;100.00
70815;BME280;58428;49.478;10.986;2023-01-01T03:11:08;98669.44;;;11.97;100.00
70815;BME280;58428;49.478;10.986;2023-01-01T03:17:13;98680.28;;;11.97;100.00
70815;BME280;58428;49.478;10.986;2023-01-01T03:19:44;98672.78;;;11.94;100.00
70815;BME280;58428;49.478;10.986;2023-01-01T03:22:14;98684.78;;;11.93;100.00
70815;BME280;58428;49.478;10.986;2023-01-01T03:24:47;98683.84;;;11.89;100.00
70815;BME280;58428;49.478;10.986;2023-01-01T03:27:26;98689.91;;;11.86;100.00
70815;BME280;58428;49.478;10.986;2023-01-01T03:29:58;98693.41;;;11.86;100.00
70815;BME280;58428;49.478;10.986;2023-01-01T03:32:26;98698.34;;;11.84;100.00
70815;BME280;58428;49.478;10.986;2023-01-01T03:35:18;98685.94;;;11.83;100.00
70815;BME280;58428;49.478;10.986;2023-01-01T03:37:50;98686.72;;;11.84;100.00
70815;BME280;58428;49.478;10.986;2023-01-01T03:40:20;98694.38;;;11.82;100.00
70815;BME280;58428;49.478;10.986;2023-01-01T03:42:53;98693.59;;;11.81;100.00
70815;BME280;58428;49.478;10.986;2023-01-01T03:45:28;98687.88;;;11.83;100.00
70815;BME280;58428;49.478;10.986;2023-01-01T03:47:55;98688.97;;;11.82;100.00
70815;BME280;58428;49.478;10.986;2023-01-01T03:50:28;98691.69;;;11.82;100.00
70815;BME280;58428;49.478;10.986;2023-01-01T03:53:07;98689.63;;;11.79;100.00
70815;BME280;58428;49.478;10.986;2023-01-01T03:55:38;98683.75;;;11.77;100.00
70815;BME280;58428;49.478;10.986;2023-01-01T03:58:23;98689.81;;;11.74;100.00
70815;BME280;58428;49.478;10.986;2023-01-01T04:01:01;98694.28;;;11.70;100.00
70815;BME280;58428;49.478;10.986;2023-01-01T04:03:31;98697.00;;;11.70;100.00
70815;BME280;58428;49.478;10.986;2023-01-01T04:05:57;98710.56;;;11.70;100.00
70815;BME280;58428;49.478;10.986;2023-01-01T04:08:23;98705.44;;;11.69;100.00
70815;BME280;58428;49.478;10.986;2023-01-01T04:10:54;98705.81;;;11.67;100.00
70815;BME280;58428;49.478;10.986;2023-01-01T04:13:21;98706.13;;;11.66;100.00
70815;BME280;58428;49.478;10.986;2023-01-01T04:15:46;98717.28;;;11.64;100.00
70815;BME280;58428;49.478;10.986;2023-01-01T04:18:13;98720.31;;;11.63;100.00
70815;BME280;58428;49.478;10.986;2023-01-01T04:20:38;98717.75;;;11.66;100.00
70815;BME280;58428;49.478;10.986;2023-01-01T04:23:04;98714.41;;;11.69;100.00
70815;BME280;58428;49.478;10.986;2023-01-01T04:25:30;98724.25;;;11.74;100.00
70815;BME280;58428;49.478;10.986;2023-01-01T04:27:56;98715.94;;;11.78;100.00
70815;BME280;58428;49.478;10.986;2023-01-01T04:30:25;98720.56;;;11.78;100.00
70815;BME280;58428;49.478;10.986;2023-01-01T04:32:53;98724.41;;;11.77;100.00
70815;BME280;58428;49.478;10.986;2023-01-01T04:35:20;98727.13;;;11.77;100.00
70815;BME280;58428;49.478;10.986;2023-01-01T04:37:46;98730.63;;;11.77;100.00
70815;BME280;58428;49.478;10.986;2023-01-01T04:40:12;98727.25;;;11.80;100.00
70815;BME280;58428;49.478;10.986;2023-01-01T04:42:38;98720.72;;;11.81;100.00
70815;BME280;58428;49.478;10.986;2023-01-01T04:45:04;98725.34;;;11.81;100.00
70815;BME280;58428;49.478;10.986;2023-01-01T04:47:30;98738.91;;;11.81;100.00
70815;BME280;58428;49.478;10.986;2023-01-01T04:49:55;98737.63;;;11.78;100.00
70815;BME280;58428;49.478;10.986;2023-01-01T04:52:21;98744.63;;;11.79;100.00
70815;BME280;58428;49.478;10.986;2023-01-01T04:54:47;98744.16;;;11.77;100.00
70815;BME280;58428;49.478;10.986;2023-01-01T04:57:14;98745.28;;;11.76;100.00
70815;BME280;58428;49.478;10.986;2023-01-01T04:59:40;98755.66;;;11.75;100.00
70815;BME280;58428;49.478;10.986;2023-01-01T05:02:05;98753.75;;;11.75;100.00
70815;BME280;58428;49.478;10.986;2023-01-01T05:04:31;98763.00;;;11.74;100.00
70815;BME280;58428;49.478;10.986;2023-01-01T05:06:56;98765.56;;;11.71;100.00
70815;BME280;58428;49.478;10.986;2023-01-01T05:09:22;98756.94;;;11.69;100.00
70815;BME280;58428;49.478;10.986;2023-01-01T05:11:50;98756.81;;;11.65;100.00
70815;BME280;58428;49.478;10.986;2023-01-01T05:14:17;98759.38;;;11.62;100.00
70815;BME280;58428;49.478;10.986;2023-01-01T05:16:42;98767.34;;;11.58;100.00
70815;BME280;58428;49.478;10.986;2023-01-01T05:19:08;98760.34;;;11.57;100.00
70815;BME280;58428;49.478;10.986;2023-01-01T05:21:38;98764.66;;;11.58;100.00
70815;BME280;58428;49.478;10.986;2023-01-01T05:24:08;98770.69;;;11.55;100.00
70815;BME280;58428;49.478;10.986;2023-01-01T05:26:42;98773.13;;;11.48;100.00
70815;BME280;58428;49.478;10.986;2023-01-01T05:29:12;98770.56;;;11.43;100.00
70815;BME280;58428;49.478;10.986;2023-01-01T05:31:38;98771.19;;;11.40;100.00
70815;BME280;58428;49.478;10.986;2023-01-01T05:34:04;98779.16;;;11.37;100.00
70815;BME280;58428;49.478;10.986;2023-01-01T05:36:34;98767.38;;;11.33;100.00
70815;BME280;58428;49.478;10.986;2023-01-01T05:39:04;98782.38;;;11.31;100.00
70815;BME280;58428;49.478;10.986;2023-01-01T05:41:29;98779.19;;;11.29;100.00
70815;BME280;58428;49.478;10.986;2023-01-01T05:44:00;98774.25;;;11.31;100.00
70815;BME280;58428;49.478;10.986;2023-01-01T05:46:51;98777.28;;;11.29;100.00
70815;BME280;58428;49.478;10.986;2023-01-01T05:49:18;98776.00;;;11.27;100.00
70815;BME280;58428;49.478;10.986;2023-01-01T05:51:43;98777.44;;;11.24;100.00
70815;BME280;58428;49.478;10.986;2023-01-01T05:54:10;98782.06;;;11.24;100.00
70815;BME280;58428;49.478;10.986;2023-01-01T05:56:35;98782.06;;;11.24;100.00
70815;BME280;58428;49.478;10.986;2023-01-01T05:59:03;98781.44;;;11.27;100.00
70815;BME280;58428;49.478;10.986;2023-01-01T06:01:29;98784.94;;;11.27;100.00
70815;BME280;58428;49.478;10.986;2023-01-01T06:03:58;98780.31;;;11.28;100.00
70815;BME280;58428;49.478;10.986;2023-01-01T06:06:28;98783.78;;;11.28;100.00
70815;BME280;58428;49.478;10.986;2023-01-01T06:09:02;98785.41;;;11.29;100.00
70815;BME280;58428;49.478;10.986;2023-01-01T06:11:30;98786.19;;;11.30;100.00
70815;BME280;58428;49.478;10.986;2023-01-01T06:13:58;98790.03;;;11.29;100.00
70815;BME280;58428;49.478;10.986;2023-01-01T06:16:25;98793.84;;;11.28;100.00
70815;BME280;58428;49.478;10.986;2023-01-01T06:18:51;98795.09;;;11.30;100.00
70815;BME280;58428;49.478;10.986;2023-01-01T06:21:23;98794.63;;;11.28;100.00
70815;BME280;58428;49.478;10.986;2023-01-01T06:23:50;98794.16;;;11.26;100.00
70815;BME280;58428;49.478;10.986;2023-01-01T06:26:20;98802.94;;;11.23;100.00
70815;BME280;58428;49.478;10.986;2023-01-01T06:28:47;98791.63;;;11.21;100.00
70815;BME280;58428;49.478;10.986;2023-01-01T06:31:15;98793.38;;;11.17;100.00
70815;BME280;58428;49.478;10.986;2023-01-01T06:33:41;98793.06;;;11.10;100.00
70815;BME280;58428;49.478;10.986;2023-01-01T06:36:10;98787.81;;;11.05;100.00
70815;BME280;58428;49.478;10.986;2023-01-01T06:38:38;98798.31;;;11.07;100.00
70815;BME280;58428;49.478;10.986;2023-01-01T06:41:06;98805.81;;;11.10;100.00
70815;BME280;58428;49.478;10.986;2023-01-01T06:43:34;98798.31;;;11.07;100.00
70815;BME280;58428;49.478;10.986;2023-01-01T06:48:33;98815.69;;;11.06;100.00
70815;BME280;58428;49.478;10.986;2023-01-01T06:51:13;98810.41;;;11.01;100.00
70815;BME280;58428;49.478;10.986;2023-01-01T06:53:39;98824.44;;;11.03;100.00
70815;BME280;58428;49.478;10.986;2023-01-01T06:56:07;98815.84;;;11.01;100.00
70815;BME280;58428;49.478;10.986;2023-01-01T06:58:33;98823.47;;;10.99;100.00
70815;BME280;58428;49.478;10.986;2023-01-01T07:01:23;98828.59;;;11.01;100.00
70815;BME280;58428;49.478;10.986;2023-01-01T07:03:53;98830.34;;;10.97;100.00
70815;BME280;58428;49.478;10.986;2023-01-01T07:06:21;98842.78;;;10.98;100.00
70815;BME280;58428;49.478;10.986;2023-01-01T07:08:50;98849.59;;;10.95;100.00
70815;BME280;58428;49.478;10.986;2023-01-01T07:11:18;98840.38;;;10.96;100.00
70815;BME280;58428;49.478;10.986;2023-01-01T07:13:43;98847.06;;;10.99;100.00
70815;BME280;58428;49.478;10.986;2023-01-01T07:16:09;98850.56;;;10.99;100.00
70815;BME280;58428;49.478;10.986;2023-01-01T07:18:36;98851.03;;;11.01;100.00
70815;BME280;58428;49.478;10.986;2023-01-01T07:21:04;98858.84;;;11.02;100.00
70815;BME280;58428;49.478;10.986;2023-01-01T07:23:33;98859.97;;;11.02;100.00
70815;BME280;58428;49.478;10.986;2023-01-01T07:25:59;98876.34;;;11.05;100.00
70815;BME280;58428;49.478;10.986;2023-01-01T07:28:25;98866.00;;;11.07;100.00
70815;BME280;58428;49.478;10.986;2023-01-01T07:30:51;98876.22;;;11.10;100.00
70815;BME280;58428;49.478;10.986;2023-01-01T07:33:22;98882.72;;;11.09;100.00
70815;BME280;58428;49.478;10.986;2023-01-01T07:35:48;98877.47;;;11.12;100.00
70815;BME280;58428;49.478;10.986;2023-01-01T07:38:14;98879.56;;;11.15;100.00
70815;BME280;58428;49.478;10.986;2023-01-01T07:40:40;98881.97;;;11.17;100.00
70815;BME280;58428;49.478;10.986;2023-01-01T07:43:06;98877.34;;;11.17;100.00
70815;BME280;58428;49.478;10.986;2023-01-01T07:45:32;98882.44;;;11.19;100.00
70815;BME280;58428;49.478;10.986;2023-01-01T07:47:59;98879.88;;;11.22;100.00
70815;BME280;58428;49.478;10.986;2023-01-01T07:50:28;98881.47;;;11.23;100.00
70815;BME280;58428;49.478;10.986;2023-01-01T07:52:54;98881.47;;;11.23;100.00
70815;BME280;58428;49.478;10.986;2023-01-01T07:55:20;98891.66;;;11.26;100.00
70815;BME280;58428;49.478;10.986;2023-01-01T07:57:46;98891.03;;;11.29;100.00
70815;BME280;58428;49.478;10.986;2023-01-01T08:00:15;98890.38;;;11.32;100.00
70815;BME280;58428;49.478;10.986;2023-01-01T08:02:41;98898.38;;;11.37;100.00
70815;BME280;58428;49.478;10.986;2023-01-01T08:05:07;98893.91;;;11.41;100.00
70815;BME280;58428;49.478;10.986;2023-01-01T08:07:34;98899.53;;;11.44;100.00
70815;BME280;58428;49.478;10.986;2023-01-01T08:09:59;98898.88;;;11.47;100.00
70815;BME280;58428;49.478;10.986;2023-01-01T08:12:25;98909.56;;;11.52;100.00
70815;BME280;58428;49.478;10.986;2023-01-01T08:17:16;98914.66;;;11.62;100.00
70815;BME280;58428;49.478;10.986;2023-01-01T08:19:42;98918.78;;;11.68;100.00
70815;BME280;58428;49.478;10.986;2023-01-01T08:22:10;98924.06;;;11.73;100.00
70815;BME280;58428;49.478;10.986;2023-01-01T08:24:36;98920.38;;;11.77;100.00
70815;BME280;58428;49.478;10.986;2023-01-01T08:27:01;98928.47;;;11.86;100.00
70815;BME280;58428;49.478;10.986;2023-01-01T08:29:29;98925.63;;;11.91;100.00
70815;BME280;58428;49.478;10.986;2023-01-01T08:31:56;98928.13;;;11.96;100.00
70815;BME280;58428;49.478;10.986;2023-01-01T08:34:22;98932.75;;;12.04;100.00
70815;BME280;58428;49.478;10.986;2023-01-01T08:36:47;98931.81;;;12.08;100.00
70815;BME280;58428;49.478;10.986;2023-01-01T08:39:13;98935.16;;;12.13;100.00
70815;BME280;58428;49.478;10.986;2023-01-01T08:41:38;98942.63;;;12.16;100.00
70815;BME280;58428;49.478;10.986;2023-01-01T08:44:04;98935.91;;;12.22;100.00
70815;BME280;58428;49.478;10.986;2023-01-01T08:46:29;98939.88;;;12.25;100.00
70815;BME280;58428;49.478;10.986;2023-01-01T08:48:54;98946.25;;;12.29;100.00
70815;BME280;58428;49.478;10.986;2023-01-01T08:51:20;98950.56;;;12.30;100.00
70815;BME280;58428;49.478;10.986;2023-01-01T08:53:47;98958.38;;;12.31;100.00
70815;BME280;58428;49.478;10.986;2023-01-01T08:56:14;98952.63;;;12.33;100.00
70815;BME280;58428;49.478;10.986;2023-01-01T08:58:40;98950.72;;;12.33;100.00
70815;BME280;58428;49.478;10.986;2023-01-01T09:01:06;98951.50;;;12.34;100.00
70815;BME280;58428;49.478;10.986;2023-01-01T09:03:34;98949.13;;;12.32;100.00
70815;BME280;58428;49.478;10.986;2023-01-01T09:06:00;98951.03;;;12.32;100.00
70815;BME280;58428;49.478;10.986;2023-01-01T09:08:26;98951.03;;;12.32;100.00
70815;BME280;58428;49.478;10.986;2023-01-01T09:10:52;98959.97;;;12.32;100.00
70815;BME280;58428;49.478;10.986;2023-01-01T09:13:21;98955.69;;;12.31;100.00
70815;BME280;58428;49.478;10.986;2023-01-01T09:15:48;98958.03;;;12.33;100.00
70815;BME280;58428;49.478;10.986;2023-01-01T09:18:15;98966.66;;;12.35;100.00
70815;BME280;58428;49.478;10.986;2023-01-01T09:20:40;98969.53;;;12.38;100.00
70815;BME280;58428;49.478;10.986;2023-01-01T09:23:06;98971.28;;;12.43;100.00
70815;BME280;58428;49.478;10.986;2023-01-01T09:25:33;98973.03;;;12.47;100.00
70815;BME280;58428;49.478;10.986;2023-01-01T09:28:07;98973.97;;;12.51;100.00
70815;BME280;58428;49.478;10.986;2023-01-01T09:30:34;98987.03;;;12.57;100.00
70815;BME280;58428;49.478;10.986;2023-01-01T09:33:04;98986.53;;;12.64;100.00
70815;BME280;58428;49.478;10.986;2023-01-01T09:35:32;98979.00;;;12.69;100.00
70815;BME280;58428;49.478;10.986;2023-01-01T09:38:02;98988.56;;;12.75;100.00
70815;BME280;58428;49.478;10.986;2023-01-01T09:40:59;98994.31;;;12.82;100.00
70815;BME280;58428;49.478;10.986;2023-01-01T09:43:53;98992.38;;;12.91;100.00
70815;BME280;58428;49.478;10.986;2023-01-01T09:46:26;98995.03;;;12.99;100.00
70815;BME280;58428;49.478;10.986;2023-01-01T09:49:05;98990.69;;;13.07;100.00
70815;BME280;58428;49.478;10.986;2023-01-01T09:51:35;98984.19;;;13.20;100.00
70815;BME280;58428;49.478;10.986;2023-01-01T09:56:53;98986.28;;;13.43;100.00
70815;BME280;58428;49.478;10.986;2023-01-01T09:59:20;98990.22;;;13.54;100.00
70815;BME280;58428;49.478;10.986;2023-01-01T10:07:44;98973.31;;;13.68;100.00
70815;BME280;58428;49.478;10.986;2023-01-01T10:19:27;98955.22;;;13.72;100.00
70815;BME280;58428;49.478;10.986;2023-01-01T10:21:57;98956.00;;;13.73;100.00
70815;BME280;58428;49.478;10.986;2023-01-01T10:24:42;98955.22;;;13.72;100.00
70815;BME280;58428;49.478;10.986;2023-01-01T10:27:33;98965.28;;;13.72;100.00
70815;BME280;58428;49.478;10.986;2023-01-01T10:30:03;98960.19;;;13.70;100.00
70815;BME280;58428;49.478;10.986;2023-01-01T10:32:35;98954.41;;;13.72;100.00
70815;BME280;58428;49.478;10.986;2023-01-01T10:35:13;98957.94;;;13.72;100.00
70815;BME280;58428;49.478;10.986;2023-01-01T10:37:39;98953.75;;;13.75;100.00
70815;BME280;58428;49.478;10.986;2023-01-01T10:40:27;98958.84;;;13.76;100.00
70815;BME280;58428;49.478;10.986;2023-01-01T10:42:55;98965.22;;;13.80;100.00
70815;BME280;58428;49.478;10.986;2023-01-01T10:45:30;98955.25;;;13.84;100.00
70815;BME280;58428;49.478;10.986;2023-01-01T10:50:51;98960.28;;;13.94;100.00
70815;BME280;58428;49.478;10.986;2023-01-01T10:53:27;98964.41;;;14.00;100.00
70815;BME280;58428;49.478;10.986;2023-01-01T10:59:07;98964.94;;;14.14;100.00
70815;BME280;58428;49.478;10.986;2023-01-01T11:01:55;98962.00;;;14.19;100.00
70815;BME280;58428;49.478;10.986;2023-01-01T11:04:31;98962.94;;;14.23;100.00
70815;BME280;58428;49.478;10.986;2023-01-01T11:06:58;98964.50;;;14.24;100.00
70815;BME280;58428;49.478;10.986;2023-01-01T11:09:27;98958.28;;;14.23;100.00
70815;BME280;58428;49.478;10.986;2023-01-01T11:12:00;98964.97;;;14.26;100.00
70815;BME280;58428;49.478;10.986;2023-01-01T11:14:30;98959.66;;;14.29;100.00
70815;BME280;58428;49.478;10.986;2023-01-01T11:16:58;98958.50;;;14.30;100.00
70815;BME280;58428;49.478;10.986;2023-01-01T11:19:31;98958.03;;;14.28;100.00
70815;BME280;58428;49.478;10.986;2023-01-01T11:21:59;98952.97;;;14.27;100.00
70815;BME280;58428;49.478;10.986;2023-01-01T11:24:26;98964.16;;;14.25;100.00
70815;BME280;58428;49.478;10.986;2023-01-01T11:26:52;98961.31;;;14.22;100.00
70815;BME280;58428;49.478;10.986;2023-01-01T11:29:29;98946.59;;;14.23;100.00
70815;BME280;58428;49.478;10.986;2023-01-01T11:31:57;98944.78;;;14.27;100.00
70815;BME280;58428;49.478;10.986;2023-01-01T11:34:38;98944.34;;;14.25;100.00
70815;BME280;58428;49.478;10.986;2023-01-01T11:39:33;98935.81;;;14.26;100.00
70815;BME280;58428;49.478;10.986;2023-01-01T11:42:03;98926.19;;;14.29;100.00
70815;BME280;58428;49.478;10.986;2023-01-01T11:44:42;98926.66;;;14.31;100.00
70815;BME280;58428;49.478;10.986;2023-01-01T11:47:44;98926.28;;;14.32;100.00
70815;BME280;58428;49.478;10.986;2023-01-01T11:50:33;98926.75;;;14.34;100.00
70815;BME280;58428;49.478;10.986;2023-01-01T11:56:22;98917.81;;;14.45;100.00
70815;BME280;58428;49.478;10.986;2023-01-01T12:03:57;98922.41;;;14.65;100.00
70815;BME280;58428;49.478;10.986;2023-01-01T12:06:30;98916.69;;;14.70;100.00
70815;BME280;58428;49.478;10.986;2023-01-01T12:11:36;98915.00;;;14.77;100.00
70815;BME280;58428;49.478;10.986;2023-01-01T12:17:03;98906.25;;;14.84;100.00
70815;BME280;58428;49.478;10.986;2023-01-01T12:19:40;98905.22;;;14.88;100.00
70815;BME280;58428;49.478;10.986;2023-01-01T12:22:15;98908.06;;;14.92;100.00
70815;BME280;58428;49.478;10.986;2023-01-01T12:24:42;98907.50;;;14.86;100.00
70815;BME280;58428;49.478;10.986;2023-01-01T12:27:40;98910.69;;;14.88;100.00
70815;BME280;58428;49.478;10.986;2023-01-01T12:30:42;98899.56;;;14.93;100.00
70815;BME280;58428;49.478;10.986;2023-01-01T12:33:17;98903.75;;;15.03;100.00
70815;BME280;58428;49.478;10.986;2023-01-01T12:38:58;98896.16;;;15.20;100.00
70815;BME280;58428;49.478;10.986;2023-01-01T12:41:51;98889.66;;;15.24;100.00
70815;BME280;58428;49.478;10.986;2023-01-01T12:58:33;98885.91;;;15.29;100.00
70815;BME280;58428;49.478;10.986;2023-01-01T13:03:48;98883.72;;;15.34;100.00
70815;BME280;58428;49.478;10.986;2023-01-01T13:06:18;98885.78;;;15.37;100.00
70815;BME280;58428;49.478;10.986;2023-01-01T13:08:53;98888.13;;;15.39;100.00
70815;BME280;58428;49.478;10.986;2023-01-01T13:11:23;98879.63;;;15.40;100.00
70815;BME280;58428;49.478;10.986;2023-01-01T13:13:52;98874.63;;;15.42;100.00
70815;BME280;58428;49.478;10.986;2023-01-01T13:16:46;98878.59;;;15.45;100.00
70815;BME280;58428;49.478;10.986;2023-01-01T13:19:39;98873.69;;;15.50;100.00
70815;BME280;58428;49.478;10.986;2023-01-01T13:22:34;98872.09;;;15.49;100.00
70815;BME280;58428;49.478;10.986;2023-01-01T13:25:23;98874.03;;;15.48;100.00
70815;BME280;58428;49.478;10.986;2023-01-01T13:35:44;98864.41;;;15.39;100.00
70815;BME280;58428;49.478;10.986;2023-01-01T13:44:38;98876.28;;;15.19;100.00
70815;BME280;58428;49.478;10.986;2023-01-01T13:47:32;98878.13;;;15.15;100.00
70815;BME280;58428;49.478;10.986;2023-01-01T13:55:37;98882.06;;;15.18;100.00
70815;BME280;58428;49.478;10.986;2023-01-01T14:01:44;98875.25;;;15.12;100.00
70815;BME280;58428;49.478;10.986;2023-01-01T14:04:41;98869.22;;;15.07;100.00
70815;BME280;58428;49.478;10.986;2023-01-01T14:10:28;98874.13;;;15.01;100.00
70815;BME280;58428;49.478;10.986;2023-01-01T14:15:39;98871.19;;;14.94;100.00
70815;BME280;58428;49.478;10.986;2023-01-01T14:18:14;98862.66;;;14.96;100.00
70815;BME280;58428;49.478;10.986;2023-01-01T14:20:48;98874.00;;;14.98;100.00
70815;BME280;58428;49.478;10.986;2023-01-01T14:23:21;98870.50;;;14.97;100.00
70815;BME280;58428;49.478;10.986;2023-01-01T14:25:50;98867.44;;;14.99;100.00
70815;BME280;58428;49.478;10.986;2023-01-01T14:28:19;98873.00;;;15.02;100.00
70815;BME280;58428;49.478;10.986;2023-01-01T14:30:46;98877.53;;;14.98;100.00
70815;BME280;58428;49.478;10.986;2023-01-01T14:33:20;98870.59;;;15.01;100.00
70815;BME280;58428;49.478;10.986;2023-01-01T14:35:53;98874.13;;;15.01;100.00
70815;BME280;58428;49.478;10.986;2023-01-01T14:38:27;98877.63;;;15.02;100.00
70815;BME280;58428;49.478;10.986;2023-01-01T14:43:39;98875.03;;;14.93;100.00
70815;BME280;58428;49.478;10.986;2023-01-01T14:46:06;98875.63;;;14.87;100.00
70815;BME280;58428;49.478;10.986;2023-01-01T14:48:33;98871.28;;;14.86;100.00
70815;BME280;58428;49.478;10.986;2023-01-01T14:50:59;98872.78;;;14.83;100.00
70815;BME280;58428;49.478;10.986;2023-01-01T14:53:31;98867.66;;;14.82;100.00
70815;BME280;58428;49.478;10.986;2023-01-01T14:56:33;98865.97;;;14.77;100.00
70815;BME280;58428;49.478;10.986;2023-01-01T15:04:29;98867.94;;;14.65;100.00
70815;BME280;58428;49.478;10.986;2023-01-01T15:06:55;98869.84;;;14.65;100.00
70815;BME280;58428;49.478;10.986;2023-01-01T15:09:22;98868.25;;;14.64;100.00